Time;durP1;ratioP1;P1;durP2;ratioP2;P2;SDS_P1;SDS_P2;PMS_P1;PMS_P2;Temp;Humidity;BMP_temperature;BMP_pressure;BME280_temperature;BME280_humidity;BME280_pressure;Samples;Min_cycle;Max_cycle;Signal;HPM_P1;HPM_P2
2021/09/21 00:01:14;;;;;;;23.95;12.82;;;;;;;4.59;84.94;100786.48;1723265;83;25462;-71
2021/09/21 00:03:40;;;;;;;21.42;12.00;;;;;;;4.59;84.96;100793.98;1723283;83;25447;-71
2021/09/21 00:06:07;;;;;;;22.00;12.53;;;;;;;4.57;85.07;100793.43;1723370;83;25526;-70
2021/09/21 00:08:35;;;;;;;18.80;12.70;;;;;;;4.57;84.99;100794.77;1723330;83;27709;-71
2021/09/21 00:11:05;;;;;;;21.45;12.15;;;;;;;4.56;85.02;100790.47;1723227;83;25613;-71
2021/09/21 00:13:32;;;;;;;;;;;;;;;4.55;85.21;100786.19;1768150;80;25259;-71
2021/09/21 00:15:59;;;;;;;21.45;11.85;;;;;;;4.55;85.30;100788.07;1773210;80;25658;-71
2021/09/21 00:18:26;;;;;;;22.77;12.13;;;;;;;4.53;85.33;100788.83;1773334;80;25625;-71
2021/09/21 00:20:52;;;;;;;19.57;11.68;;;;;;;4.52;85.44;100793.39;1773377;80;27526;-71
2021/09/21 00:23:19;;;;;;;23.60;12.93;;;;;;;4.51;85.37;100791.77;1773242;80;25433;-70
2021/09/21 00:25:46;;;;;;;18.60;12.05;;;;;;;4.49;85.55;100789.37;1773340;80;25383;-71
2021/09/21 00:28:12;;;;;;;21.15;11.78;;;;;;;4.50;85.60;100792.84;1773283;80;25537;-72
2021/09/21 00:30:46;;;;;;;22.27;13.05;;;;;;;4.48;85.75;100785.06;1773394;80;25578;-72
2021/09/21 00:33:16;;;;;;;21.20;12.20;;;;;;;4.51;85.78;100784.27;1769751;80;27675;-72
2021/09/21 00:35:36;;;;;;;22.65;12.13;;;;;;;4.51;86.00;100786.41;1769276;80;25597;-71
2021/09/21 00:38:03;;;;;;;24.23;12.68;;;;;;;4.53;86.22;100782.96;1770435;81;25545;-70
2021/09/21 00:40:30;;;;;;;21.62;12.73;;;;;;;4.56;86.37;100789.66;1770297;80;25462;-70
2021/09/21 00:43:02;;;;;;;22.77;12.33;;;;;;;4.58;86.63;100792.89;1770331;81;25454;-70
2021/09/21 00:45:31;;;;;;;20.75;11.38;;;;;;;4.62;86.79;100787.31;1770377;81;27469;-71
2021/09/21 00:47:58;;;;;;;23.18;13.70;;;;;;;4.69;86.96;100785.21;1770261;81;25555;-72
2021/09/21 00:50:28;;;;;;;23.70;13.58;;;;;;;4.74;87.05;100785.78;1770315;81;25440;-70
2021/09/21 00:52:57;;;;;;;25.88;12.58;;;;;;;4.80;87.18;100788.76;1770307;81;25582;-70
2021/09/21 00:55:24;;;;;;;22.15;12.88;;;;;;;4.85;87.31;100792.30;1770476;81;25482;-70
2021/09/21 00:57:51;;;;;;;21.75;13.45;;;;;;;4.89;87.20;100787.23;1774336;80;27551;-70
2021/09/21 01:00:21;;;;;;;23.87;13.53;;;;;;;4.94;87.10;100799.33;1783405;80;25798;-70
2021/09/21 01:02:48;;;;;;;23.95;13.62;;;;;;;4.98;87.28;100791.56;1783493;80;25566;-70
2021/09/21 01:05:15;;;;;;;25.10;13.40;;;;;;;5.01;87.38;100793.73;1783464;80;25584;-70
2021/09/21 01:07:44;;;;;;;22.85;14.07;;;;;;;5.06;87.52;100788.41;1783501;80;25576;-70
2021/09/21 01:10:16;;;;;;;27.15;13.70;;;;;;;5.10;87.43;100790.83;1783635;80;27462;-70
2021/09/21 01:12:44;;;;;;;20.75;13.20;;;;;;;5.13;87.39;100790.31;1782153;80;25748;-70
2021/09/21 01:15:12;;;;;;;21.02;13.38;;;;;;;5.18;87.66;100789.54;1783489;80;25403;-70
2021/09/21 01:17:39;;;;;;;24.25;13.10;;;;;;;5.22;87.81;100794.64;1783410;80;26017;-70
2021/09/21 01:20:09;;;;;;;23.32;13.50;;;;;;;5.23;87.64;100789.02;1783555;80;25444;-70
2021/09/21 01:22:35;;;;;;;21.23;12.75;;;;;;;5.28;87.71;100788.25;1783612;80;27491;-70
2021/09/21 01:25:03;;;;;;;22.15;12.82;;;;;;;5.30;87.51;100792.02;1783379;80;25531;-70
2021/09/21 01:27:30;;;;;;;22.02;13.75;;;;;;;5.29;87.24;100780.45;1783484;80;25609;-69
2021/09/21 01:29:57;;;;;;;20.85;12.78;;;;;;;5.30;87.31;100785.31;1783474;80;25584;-70
2021/09/21 01:32:23;;;;;;;25.88;14.28;;;;;;;5.30;87.21;100779.94;1783503;79;25576;-70
2021/09/21 01:34:50;;;;;;;21.70;12.53;;;;;;;5.29;87.24;100780.45;1783488;80;27638;-71
2021/09/21 01:37:19;;;;;;;21.45;12.25;;;;;;;5.29;87.07;100783.14;1783361;80;25963;-70
2021/09/21 01:39:45;;;;;;;23.85;12.10;;;;;;;5.29;86.96;100789.05;1783470;80;25529;-70
2021/09/21 01:42:12;;;;;;;23.05;13.20;;;;;;;5.28;87.04;100789.59;1783434;80;25669;-70
2021/09/21 01:44:38;;;;;;;21.15;12.20;;;;;;;5.29;87.03;100786.36;1783520;80;25576;-70
2021/09/21 01:47:05;;;;;;;24.47;13.48;;;;;;;5.30;87.36;100783.97;1783477;80;27654;-70
2021/09/21 01:49:57;;;;;;;20.77;12.23;;;;;;;5.31;87.46;100782.87;1783383;80;25525;-70
2021/09/21 02:00:05;;;;;;;24.20;13.98;;;;;;;5.41;87.77;100796.34;1783506;80;28357;-70
2021/09/21 02:02:32;;;;;;;23.75;15.85;;;;;;;5.43;87.81;100802.24;1783360;80;25427;-70
2021/09/21 02:04:58;;;;;;;26.02;16.65;;;;;;;5.46;87.89;100803.06;1783491;80;25584;-70
2021/09/21 02:07:25;;;;;;;24.27;16.77;;;;;;;5.49;88.21;100806.58;1783446;80;25532;-70
2021/09/21 02:09:51;;;;;;;24.37;15.60;;;;;;;5.53;88.41;100802.28;1783508;80;25379;-70
2021/09/21 02:12:18;;;;;;;26.52;16.48;;;;;;;5.56;88.34;100804.99;1783459;80;27983;-70
2021/09/21 02:14:45;;;;;;;25.75;15.43;;;;;;;5.58;88.27;100811.73;1783409;80;25585;-70
2021/09/21 02:17:11;;;;;;;24.98;14.98;;;;;;;5.59;88.10;100807.95;1783438;80;25582;-70
2021/09/21 02:19:40;;;;;;;24.25;14.75;;;;;;;5.59;88.08;100804.47;1783409;80;25997;-70
2021/09/21 02:22:07;;;;;;;22.85;13.48;;;;;;;5.60;87.92;100809.58;1783443;80;25588;-70
2021/09/21 02:24:34;;;;;;;24.10;13.40;;;;;;;5.59;87.85;100804.47;1783468;80;27468;-70
2021/09/21 02:27:02;;;;;;;22.77;12.90;;;;;;;5.57;87.77;100807.41;1783422;80;25380;-70
2021/09/21 02:29:28;;;;;;;23.98;13.93;;;;;;;5.54;87.72;100807.14;1783520;80;25420;-70
2021/09/21 02:31:56;;;;;;;20.30;13.28;;;;;;;5.52;87.72;100812.77;1783476;80;25618;-70
2021/09/21 02:34:23;;;;;;;23.38;14.30;;;;;;;5.50;87.66;100812.22;1783570;80;25440;-70
2021/09/21 02:36:49;;;;;;;22.35;13.72;;;;;;;5.47;87.49;100808.72;1783561;79;27516;-70
2021/09/21 02:39:15;;;;;;;23.98;13.98;;;;;;;5.44;87.62;100810.58;1783537;79;25459;-70
2021/09/21 02:41:42;;;;;;;25.27;14.65;;;;;;;5.41;87.57;100809.23;1783628;79;25484;-70
2021/09/21 02:44:08;;;;;;;22.35;13.90;;;;;;;5.40;87.67;100805.47;1783590;80;25639;-70
2021/09/21 02:46:35;;;;;;;22.77;12.90;;;;;;;5.37;87.56;100807.33;1783642;80;25521;-70
2021/09/21 02:49:01;;;;;;;26.23;14.20;;;;;;;5.34;87.62;100807.30;1783606;80;27560;-71
2021/09/21 02:51:27;;;;;;;23.47;12.13;;;;;;;5.33;87.81;100807.05;1783406;80;25531;-70
2021/09/21 02:53:54;;;;;;;25.55;13.55;;;;;;;5.31;87.73;100806.51;1783639;80;25513;-72
2021/09/21 02:56:21;;;;;;;24.07;13.38;;;;;;;5.28;87.88;100803.00;1783533;80;25490;-70
2021/09/21 02:58:47;;;;;;;24.00;13.93;;;;;;;5.27;87.99;100803.26;1783485;80;25597;-70
2021/09/21 03:01:14;;;;;;;26.52;14.55;;;;;;;5.26;88.05;100801.62;1783586;80;28102;-71
2021/09/21 03:03:48;;;;;;;24.07;13.70;;;;;;;5.24;88.18;100800.55;1783516;80;25400;-71
2021/09/21 03:06:18;;;;;;;23.55;14.10;;;;;;;5.24;88.13;100804.06;1782359;80;25558;-72
2021/09/21 03:08:39;;;;;;;24.65;13.80;;;;;;;5.21;88.12;100804.58;1781908;80;26122;-72
2021/09/21 03:11:21;;;;;;;24.45;14.53;;;;;;;5.20;88.19;100806.97;1783582;80;25584;-71
2021/09/21 03:17:05;;;;;;;23.87;13.38;;;;;;;5.18;88.19;100802.95;1783127;80;27522;-71
2021/09/21 03:18:59;;;;;;;25.97;14.63;;;;;;;5.15;88.18;100804.26;1783607;80;25462;-71
2021/09/21 03:21:25;;;;;;;26.40;15.80;;;;;;;5.13;88.24;100805.06;1783547;80;25481;-71
2021/09/21 03:23:52;;;;;;;35.35;14.63;;;;;;;5.09;88.16;100794.59;1783626;80;25596;-70
2021/09/21 03:26:21;;;;;;;24.90;13.72;;;;;;;5.07;88.13;100800.72;1783589;80;27263;-70
2021/09/21 03:28:48;;;;;;;20.62;13.70;;;;;;;5.05;88.26;100803.66;1783491;80;25554;-70
2021/09/21 03:31:14;;;;;;;24.65;14.47;;;;;;;5.03;88.33;100807.69;1783589;80;25434;-70
2021/09/21 03:33:41;;;;;;;24.37;14.63;;;;;;;5.01;88.22;100809.83;1783555;80;25577;-71
2021/09/21 03:36:08;;;;;;;24.77;14.85;;;;;;;5.01;88.23;100811.16;1783616;80;25384;-71
2021/09/21 03:38:34;;;;;;;27.27;14.85;;;;;;;5.00;88.37;100801.49;1783568;80;27655;-69
2021/09/21 03:41:02;;;;;;;25.37;13.48;;;;;;;4.97;88.26;100809.53;1783529;80;25717;-70
2021/09/21 03:43:29;;;;;;;24.57;14.00;;;;;;;4.97;88.36;100808.70;1783641;80;25387;-70
2021/09/21 03:45:55;;;;;;;27.60;14.80;;;;;;;4.95;88.33;100809.50;1783523;80;25521;-70
2021/09/21 03:48:21;;;;;;;29.55;15.00;;;;;;;4.94;88.36;100818.59;1755204;80;25443;-70
2021/09/21 03:50:48;;;;;;;23.87;14.20;;;;;;;4.91;88.34;100816.45;1783562;80;27438;-70
2021/09/21 03:53:14;;;;;;;26.20;14.00;;;;;;;4.90;88.37;100832.26;1783464;80;25374;-70
2021/09/21 03:55:41;;;;;;;24.50;14.00;;;;;;;4.88;88.38;100828.49;1783573;80;25403;-70
2021/09/21 03:58:07;;;;;;;26.00;14.85;;;;;;;4.85;88.23;100832.51;1783492;80;25572;-70
2021/09/21 04:00:34;;;;;;;26.60;14.80;;;;;;;4.83;88.05;100833.27;1777746;79;25527;-70
2021/09/21 04:03:01;;;;;;;25.40;14.95;;;;;;;4.81;88.10;100843.45;1777731;80;27535;-70
2021/09/21 04:05:28;;;;;;;25.23;15.45;;;;;;;4.80;88.42;100839.17;1777660;80;25487;-70
2021/09/21 04:07:54;;;;;;;27.60;16.10;;;;;;;4.80;88.41;100841.02;1777807;80;25496;-70
2021/09/21 04:10:22;;;;;;;26.82;15.58;;;;;;;4.79;88.51;100839.42;1777713;80;25986;-70
2021/09/21 04:12:48;;;;;;;28.98;16.50;;;;;;;4.77;88.41;100845.05;1777861;80;25582;-71
2021/09/21 04:15:15;;;;;;;27.02;16.00;;;;;;;4.75;88.53;100849.86;1777807;80;27542;-68
2021/09/21 04:17:41;;;;;;;30.20;15.93;;;;;;;4.74;88.43;100848.77;1777659;80;25428;-68
2021/09/21 04:20:10;;;;;;;30.85;16.15;;;;;;;4.73;88.61;100849.82;1777737;80;25547;-68
2021/09/21 04:22:38;;;;;;;25.25;15.25;;;;;;;4.73;88.61;100845.26;1777690;80;25535;-68
2021/09/21 04:25:06;;;;;;;26.85;15.72;;;;;;;4.71;88.66;100844.71;1777738;80;25676;-69
2021/09/21 04:27:33;;;;;;;24.35;15.78;;;;;;;4.71;88.69;100852.75;1777732;80;27454;-69
2021/09/21 04:30:01;;;;;;;28.73;15.65;;;;;;;4.70;88.71;100858.37;1777664;80;25423;-69
2021/09/21 04:32:28;;;;;;;22.55;13.98;;;;;;;4.68;88.90;100862.12;1777690;80;25557;-69
2021/09/21 04:34:55;;;;;;;25.23;14.85;;;;;;;4.68;88.84;100868.00;1777907;80;25462;-71
2021/09/21 04:37:21;;;;;;;27.62;14.73;;;;;;;4.67;88.88;100873.90;1778025;80;25188;-71
2021/09/21 04:39:48;;;;;;;27.95;15.70;;;;;;;4.66;88.98;100880.31;1777986;80;27998;-71
2021/09/21 04:42:14;;;;;;;26.27;15.98;;;;;;;4.66;88.90;100884.87;1777926;80;25439;-72
2021/09/21 04:44:41;;;;;;;27.95;16.00;;;;;;;4.65;88.95;100884.61;1777958;80;25597;-70
2021/09/21 04:47:07;;;;;;;25.68;16.90;;;;;;;4.66;89.05;100880.85;1764590;80;25602;-70
2021/09/21 04:49:34;;;;;;;29.42;16.80;;;;;;;4.67;89.14;100885.16;1760170;80;25723;-71
2021/09/21 04:52:03;;;;;;;31.02;17.40;;;;;;;4.67;89.23;100883.28;1763290;80;27462;-71
2021/09/21 04:54:29;;;;;;;28.10;16.90;;;;;;;4.70;89.25;100889.19;1761352;80;25651;-71
2021/09/21 04:56:56;;;;;;;36.45;16.85;;;;;;;4.70;89.32;100885.16;1748696;81;25530;-71
2021/09/21 04:59:23;;;;;;;29.77;17.20;;;;;;;4.71;89.37;100886.80;1749766;81;25507;-71
2021/09/21 05:01:50;;;;;;;26.85;16.42;;;;;;;4.72;89.43;100891.10;1755866;81;25421;-71
2021/09/21 05:04:16;;;;;;;30.80;17.20;;;;;;;4.73;89.51;100892.70;1755701;81;28201;-70
2021/09/21 05:06:43;;;;;;;25.70;17.02;;;;;;;4.76;89.64;100890.31;1755637;81;25616;-68
2021/09/21 05:09:13;;;;;;;25.70;17.40;;;;;;;4.79;89.76;100900.53;1755761;81;25632;-69
2021/09/21 05:11:38;;;;;;;25.52;16.25;;;;;;;4.82;89.92;100897.34;1755995;79;25502;-71
2021/09/21 05:14:04;;;;;;;26.77;16.32;;;;;;;4.86;89.95;100904.34;1755617;81;25430;-69
2021/09/21 05:16:34;;;;;;;24.37;16.07;;;;;;;4.89;90.01;100907.86;1754852;81;29651;-70
2021/09/21 05:19:00;;;;;;;29.65;16.62;;;;;;;4.92;90.11;100910.03;1755736;81;27311;-72
2021/09/21 05:21:27;;;;;;;27.05;17.30;;;;;;;4.97;90.28;100912.75;1755665;81;25424;-70
2021/09/21 05:23:53;;;;;;;26.68;17.17;;;;;;;5.02;90.42;100910.11;1781264;80;25560;-69
2021/09/21 05:26:19;;;;;;;28.57;16.73;;;;;;;5.08;90.55;100913.63;1786679;80;25624;-70
2021/09/21 05:28:46;;;;;;;29.42;17.85;;;;;;;5.16;90.72;100919.87;1786812;80;27487;-69
2021/09/21 05:31:12;;;;;;;29.18;18.23;;;;;;;5.21;90.76;100919.91;1786786;79;25468;-68
2021/09/21 05:33:39;;;;;;;25.75;17.87;;;;;;;5.27;90.76;100915.37;1786840;79;25406;-69
2021/09/21 05:36:05;;;;;;;28.83;17.87;;;;;;;5.32;90.90;100919.44;1786416;80;25640;-69
2021/09/21 05:38:32;;;;;;;27.50;16.93;;;;;;;5.41;90.95;100917.07;1786687;80;25655;-70
2021/09/21 05:40:58;;;;;;;27.98;17.57;;;;;;;5.50;91.17;100920.07;1771350;79;27497;-71
2021/09/21 05:43:25;;;;;;;28.62;17.37;;;;;;;5.59;91.30;100918.53;1786109;79;25665;-70
2021/09/21 05:45:51;;;;;;;26.60;16.95;;;;;;;5.71;91.57;100921.80;1785419;80;25428;-70
2021/09/21 05:48:18;;;;;;;29.02;17.45;;;;;;;5.83;91.82;100924.28;1785334;80;26227;-69
2021/09/21 05:50:45;;;;;;;28.55;16.37;;;;;;;5.95;91.87;100920.04;1785579;80;25640;-69
2021/09/21 05:53:11;;;;;;;29.85;16.97;;;;;;;6.10;92.21;100924.16;1786761;80;27477;-68
2021/09/21 05:55:38;;;;;;;27.42;16.50;;;;;;;6.25;92.14;100929.30;1786726;80;25597;-69
2021/09/21 05:58:04;;;;;;;28.27;17.00;;;;;;;6.41;92.16;100928.82;1786322;80;25601;-69
2021/09/21 06:00:32;;;;;;;28.50;16.93;;;;;;;6.56;92.53;100919.44;1788689;80;25512;-69
2021/09/21 06:02:59;;;;;;;27.20;16.50;;;;;;;6.75;92.47;100927.80;1789951;80;25396;-69
2021/09/21 06:05:26;;;;;;;24.40;15.63;;;;;;;6.91;92.24;100924.05;1789904;80;28022;-69
2021/09/21 06:07:54;;;;;;;25.75;15.55;;;;;;;7.09;92.36;100924.58;1789824;80;25775;-70
2021/09/21 06:10:23;;;;;;;26.87;15.72;;;;;;;7.30;92.61;100921.32;1790034;80;25359;-70
2021/09/21 06:12:50;;;;;;;25.17;16.25;;;;;;;7.48;92.11;100922.65;1790205;80;25473;-69
2021/09/21 06:15:19;;;;;;;24.90;14.40;;;;;;;7.65;92.04;100931.22;1790121;80;25405;-69
2021/09/21 06:17:48;;;;;;;22.05;14.68;;;;;;;7.83;91.71;100925.78;1790177;80;27452;-69
2021/09/21 06:20:17;;;;;;;23.77;14.78;;;;;;;8.03;91.72;100926.77;1790116;80;25393;-68
2021/09/21 06:22:46;;;;;;;25.15;13.90;;;;;;;8.25;91.95;100929.09;1790294;80;25597;-68
2021/09/21 06:25:14;;;;;;;22.48;13.10;;;;;;;8.43;91.25;100929.05;1789831;80;25475;-71
2021/09/21 06:27:43;;;;;;;26.55;14.05;;;;;;;8.62;90.84;100934.58;1790217;80;25437;-70
2021/09/21 06:30:13;;;;;;;21.20;12.33;;;;;;;8.82;90.96;100935.52;1790042;80;28188;-70
2021/09/21 06:32:41;;;;;;;18.50;12.65;;;;;;;9.06;90.29;100935.06;1789936;80;25457;-70
2021/09/21 06:35:09;;;;;;;17.75;11.68;;;;;;;9.26;89.69;100932.73;1763187;80;25423;-70
2021/09/21 06:37:36;;;;;;;20.12;11.95;;;;;;;9.50;89.71;100931.42;1789969;80;26028;-70
2021/09/21 06:40:04;;;;;;;17.65;11.18;;;;;;;9.77;89.85;100933.29;1790048;80;25442;-70
2021/09/21 06:42:33;;;;;;;13.25;9.73;;;;;;;10.06;89.66;100948.07;1789993;80;27469;-70
2021/09/21 06:45:03;;;;;;;17.52;11.78;;;;;;;10.28;88.37;100941.59;1790070;80;25688;-70
2021/09/21 06:47:31;;;;;;;16.70;10.60;;;;;;;10.60;88.72;100948.75;1790109;80;25526;-70
2021/09/21 06:49:58;;;;;;;20.48;10.60;;;;;;;10.86;87.51;100959.98;1789818;80;26119;-68
2021/09/21 06:52:24;;;;;;;16.00;9.98;;;;;;;11.10;85.93;100964.48;1789993;80;25538;-68
2021/09/21 06:54:51;;;;;;;17.35;9.78;;;;;;;11.30;86.31;100967.41;1789990;80;29593;-69
2021/09/21 06:57:17;;;;;;;17.37;9.60;;;;;;;11.58;86.55;100970.42;1775125;80;25854;-69
2021/09/21 06:59:44;;;;;;;14.07;9.03;;;;;;;11.85;84.90;100963.97;1760185;80;25596;-68
2021/09/21 07:02:11;;;;;;;12.20;9.10;;;;;;;11.96;83.76;100977.05;1762706;81;26118;-68
2021/09/21 07:04:37;;;;;;;14.23;8.23;;;;;;;12.03;82.78;100979.92;1775904;80;25526;-69
2021/09/21 07:07:04;;;;;;;14.47;8.50;;;;;;;11.98;81.12;100985.45;1795849;79;27509;-69
2021/09/21 07:09:31;;;;;;;10.60;7.80;;;;;;;11.86;79.82;100998.91;1775729;80;25594;-69
2021/09/21 07:11:57;;;;;;;11.65;8.13;;;;;;;11.69;79.25;100995.98;1795833;79;25527;-68
2021/09/21 07:14:25;;;;;;;13.32;8.55;;;;;;;11.55;78.80;100987.27;1754081;80;25558;-68
2021/09/21 07:16:51;;;;;;;11.35;7.85;;;;;;;11.42;78.89;100985.34;1795899;79;25426;-68
2021/09/21 07:19:18;;;;;;;13.13;8.00;;;;;;;11.31;78.50;100986.63;1775815;80;29796;-70
2021/09/21 07:21:48;;;;;;;13.60;7.40;;;;;;;11.20;78.77;100995.45;1795707;79;25540;-68
2021/09/21 07:24:16;;;;;;;11.38;7.40;;;;;;;11.09;78.54;100992.67;1775854;80;25566;-70
2021/09/21 07:26:46;;;;;;;8.98;6.70;;;;;;;10.99;78.53;100993.63;1795808;79;25587;-70
2021/09/21 07:29:13;;;;;;;10.30;6.78;;;;;;;10.89;78.03;100988.38;1775904;80;25454;-70
2021/09/21 07:31:40;;;;;;;10.03;7.08;;;;;;;10.77;78.07;101001.79;1795832;79;27570;-70
2021/09/21 07:34:06;;;;;;;7.72;6.30;;;;;;;10.70;78.21;101000.56;1775777;80;25620;-70
2021/09/21 07:36:33;;;;;;;9.65;6.92;;;;;;;10.61;77.94;100995.00;1795858;79;25495;-71
2021/09/21 07:38:59;;;;;;;10.95;6.75;;;;;;;10.58;78.62;100982.85;1775777;80;25431;-71
2021/09/21 07:41:25;;;;;;;12.28;7.35;;;;;;;10.60;79.05;100986.06;1795902;79;25574;-72
2021/09/21 07:43:52;;;;;;;10.53;7.53;;;;;;;10.68;79.32;100997.34;1775842;80;27472;-73
2021/09/21 07:46:20;;;;;;;10.40;6.67;;;;;;;10.74;78.95;100999.66;1795756;79;25446;-71
2021/09/21 07:48:46;;;;;;;7.30;6.10;;;;;;;10.73;78.59;101000.78;1775830;80;25430;-71
2021/09/21 07:51:13;;;;;;;9.25;6.33;;;;;;;10.76;78.39;101003.43;1795784;79;25698;-71
2021/09/21 07:53:39;;;;;;;8.85;5.92;;;;;;;10.74;78.41;101007.78;1775864;80;25387;-71
2021/09/21 07:56:06;;;;;;;9.53;5.53;;;;;;;10.80;78.46;101011.23;1795833;79;27663;-71
2021/09/21 07:58:32;;;;;;;6.00;4.50;;;;;;;10.84;78.04;101012.25;1759458;80;25440;-72
2021/09/21 08:00:59;;;;;;;10.82;5.47;;;;;;;10.89;78.05;101018.94;1753989;81;25931;-73
2021/09/21 08:03:25;;;;;;;7.70;6.12;;;;;;;10.93;77.90;101018.62;1778000;80;25548;-73
2021/09/21 08:05:52;;;;;;;7.42;5.45;;;;;;;10.96;77.76;101023.98;1778054;80;25338;-72
2021/09/21 08:08:18;;;;;;;6.20;4.33;;;;;;;11.00;77.49;101025.03;1766750;79;27525;-71
2021/09/21 08:10:50;;;;;;;5.67;4.62;;;;;;;10.99;76.94;101029.62;1755397;78;25702;-71
2021/09/21 08:13:17;;;;;;;5.85;4.20;;;;;;;11.00;76.97;101028.53;1747185;81;25622;-71
2021/09/21 08:15:44;;;;;;;7.60;5.03;;;;;;;11.03;76.70;101029.83;1747207;82;25509;-72
2021/09/21 08:18:10;;;;;;;10.05;5.60;;;;;;;11.06;76.60;101027.09;1747240;82;25433;-72
2021/09/21 08:20:38;;;;;;;5.67;4.10;;;;;;;11.08;76.62;101029.75;1747221;81;27458;-71
2021/09/21 08:23:05;;;;;;;6.90;4.25;;;;;;;11.06;75.65;101026.55;1747142;81;25599;-71
2021/09/21 08:25:31;;;;;;;5.65;3.92;;;;;;;11.03;75.62;101030.66;1747182;82;25564;-72
2021/09/21 08:27:58;;;;;;;5.35;3.87;;;;;;;11.01;75.24;101026.62;1747114;82;25787;-72
2021/09/21 08:30:24;;;;;;;5.15;3.72;;;;;;;11.00;75.13;101025.83;1747245;82;25545;-69
2021/09/21 08:32:50;;;;;;;5.58;3.87;;;;;;;11.00;74.91;101029.09;1747156;81;27439;-69
2021/09/21 08:35:17;;;;;;;6.72;3.62;;;;;;;11.03;74.89;101027.13;1747179;82;25442;-70
2021/09/21 08:37:44;;;;;;;6.37;4.00;;;;;;;11.10;75.19;101024.88;1747162;82;25428;-70
2021/09/21 08:40:12;;;;;;;6.47;4.17;;;;;;;11.32;76.85;101035.09;1747265;82;25649;-72
2021/09/21 08:42:39;;;;;;;5.40;3.92;;;;;;;11.98;79.27;101036.95;1747312;82;25508;-71
2021/09/21 08:45:06;;;;;;;6.15;3.72;;;;;;;12.79;78.12;101033.13;1747220;82;27467;-69
2021/09/21 08:47:34;;;;;;;4.95;3.62;;;;;;;13.40;76.70;101027.37;1747118;81;25502;-71
2021/09/21 08:50:03;;;;;;;6.35;3.58;;;;;;;14.07;75.59;101031.89;1717985;82;25588;-71
2021/09/21 08:52:31;;;;;;;8.13;3.92;;;;;;;14.88;75.53;101034.73;1744885;81;28079;-72
2021/09/21 08:54:58;;;;;;;4.35;3.00;;;;;;;15.67;74.11;101032.70;1747207;82;25286;-71
2021/09/21 08:57:27;;;;;;;7.53;3.40;;;;;;;16.01;71.38;101032.38;1747197;81;28119;-71
2021/09/21 08:59:56;;;;;;;7.22;4.62;;;;;;;16.50;70.79;101033.34;1705841;81;38362;-73
2021/09/21 09:02:25;;;;;;;3.85;2.87;;;;;;;16.87;69.41;101025.37;1761287;81;25347;-68
2021/09/21 09:05:03;;;;;;;6.50;4.30;;;;;;;17.32;69.48;101027.39;1761373;81;25667;-67
2021/09/21 09:07:36;;;;;;;5.28;2.95;;;;;;;17.59;67.71;101025.20;1761299;81;25454;-68
2021/09/21 09:10:06;;;;;;;5.03;2.92;;;;;;;17.77;66.44;101016.20;1761359;81;27892;-69
2021/09/21 09:12:35;;;;;;;4.22;3.25;;;;;;;17.76;65.36;101018.73;1748036;81;32793;-69
2021/09/21 09:15:16;;;;;;;4.17;3.20;;;;;;;17.57;64.67;101016.54;1761279;81;25310;-69
2021/09/21 09:17:57;;;;;;;2.67;2.42;;;;;;;17.45;64.13;101020.04;1760536;80;25479;-69
2021/09/21 09:20:42;;;;;;;3.90;2.35;;;;;;;17.18;63.38;101009.92;1761168;81;25521;-70
2021/09/21 09:23:11;;;;;;;3.20;2.90;;;;;;;16.85;62.93;101015.34;1761116;80;27342;-69
2021/09/21 09:25:47;;;;;;;3.75;3.20;;;;;;;16.53;61.95;101012.20;1761128;81;25324;-69
2021/09/21 09:28:19;;;;;;;3.98;2.70;;;;;;;16.25;63.19;101011.30;1761107;81;25326;-70
2021/09/21 09:30:48;;;;;;;2.72;2.50;;;;;;;16.36;65.13;101010.92;1760332;80;25490;-69
2021/09/21 09:33:17;;;;;;;4.55;2.58;;;;;;;16.61;64.98;100998.23;1761266;81;25310;-69
2021/09/21 09:35:48;;;;;;;4.35;2.40;;;;;;;16.64;63.84;101004.98;1761092;81;27325;-69
2021/09/21 09:38:22;;;;;;;2.72;2.17;;;;;;;16.70;64.55;100986.70;1760991;80;25507;-69
2021/09/21 09:40:56;;;;;;;2.72;2.10;;;;;;;17.07;64.28;100986.87;1761121;81;25351;-70
2021/09/21 09:43:27;;;;;;;2.70;2.50;;;;;;;17.52;64.73;100990.74;1761071;81;25463;-67
2021/09/21 09:45:59;;;;;;;4.33;2.20;;;;;;;17.88;62.37;100989.25;1761134;81;25431;-68
2021/09/21 09:48:27;;;;;;;2.40;2.20;;;;;;;17.94;61.70;100994.70;1761071;80;27361;-68
2021/09/21 09:50:56;;;;;;;3.20;2.87;;;;;;;18.14;61.53;100990.84;1761012;80;25373;-66
2021/09/21 09:53:27;;;;;;;4.40;2.77;;;;;;;18.54;61.86;100988.16;1761180;80;25450;-66
2021/09/21 09:55:58;;;;;;;4.45;2.30;;;;;;;18.84;59.89;100987.86;1761167;81;25341;-65
2021/09/21 09:58:26;;;;;;;4.85;2.67;;;;;;;19.05;59.94;100989.02;1761113;81;25495;-66
2021/09/21 10:00:56;;;;;;;4.72;2.83;;;;;;;19.44;60.35;100981.63;1761997;81;27756;-67
2021/09/21 10:03:25;;;;;;;3.45;2.67;;;;;;;19.69;58.81;100987.75;1763446;81;27136;-68
2021/09/21 10:05:53;;;;;;;2.95;2.75;;;;;;;19.70;57.88;100976.97;1763632;81;25420;-68
2021/09/21 10:08:22;;;;;;;4.42;2.52;;;;;;;19.76;57.96;100981.88;1763479;81;25359;-67
2021/09/21 10:10:49;;;;;;;3.13;2.80;;;;;;;19.91;57.30;100978.91;1763755;80;25294;-66
2021/09/21 10:13:18;;;;;;;3.02;2.55;;;;;;;20.19;57.70;100977.18;1763434;81;27252;-67
2021/09/21 10:15:48;;;;;;;3.70;2.55;;;;;;;20.49;57.19;100981.58;1763519;80;27017;-68
2021/09/21 10:18:19;;;;;;;3.05;2.55;;;;;;;20.74;57.03;100975.27;1745978;81;25397;-68
2021/09/21 10:20:58;;;;;;;4.60;3.37;;;;;;;20.87;55.42;100971.77;1763453;80;25622;-67
2021/09/21 10:23:34;;;;;;;;;;;;;;;20.61;54.08;100984.77;1765593;80;25336;-68
2021/09/21 10:26:19;;;;;;;3.30;2.87;;;;;;;20.15;52.14;100980.64;1731609;82;27188;-67
2021/09/21 10:28:50;;;;;;;3.85;2.72;;;;;;;19.70;52.65;100983.28;1755527;81;25464;-69
2021/09/21 10:31:20;;;;;;;4.37;3.02;;;;;;;19.69;53.43;100991.87;1756817;81;25383;-68
2021/09/21 10:33:48;;;;;;;5.42;3.27;;;;;;;19.55;53.04;100991.72;1756626;81;26000;-70
2021/09/21 10:36:30;;;;;;;3.70;2.90;;;;;;;19.23;52.58;100991.67;1727798;81;25420;-69
2021/09/21 10:39:10;;;;;;;3.33;2.80;;;;;;;18.90;52.38;100996.62;1754939;81;27230;-69
2021/09/21 10:42:03;;;;;;;3.58;2.95;;;;;;;18.46;52.19;100984.39;1755085;81;25488;-69
2021/09/21 10:44:33;;;;;;;4.75;3.10;;;;;;;18.11;53.19;100979.41;1754545;81;25510;-70
2021/09/21 10:47:05;;;;;;;6.37;2.92;;;;;;;17.71;52.75;100971.87;1755129;81;25352;-69
2021/09/21 10:49:39;;;;;;;4.30;3.40;;;;;;;17.35;53.00;100974.78;1755172;81;25287;-70
2021/09/21 10:52:11;;;;;;;3.80;3.12;;;;;;;17.10;55.12;100978.58;1755156;81;27181;-70
2021/09/21 10:54:57;;;;;;;3.98;2.98;;;;;;;17.00;55.11;100974.32;1755049;81;25523;-70
2021/09/21 10:57:42;;;;;;;6.03;3.30;;;;;;;16.85;54.56;100974.37;1755245;81;25282;-69
2021/09/21 11:00:23;;;;;;;3.72;3.40;;;;;;;16.66;55.16;100978.12;1755210;81;25430;-70
2021/09/21 11:02:53;;;;;;;5.30;3.33;;;;;;;16.52;55.74;100976.45;1765778;81;25527;-73
2021/09/21 11:05:26;;;;;;;6.05;3.70;;;;;;;16.35;55.43;100985.56;1766608;81;27187;-69
2021/09/21 11:09:42;;;;;;;4.60;3.00;;;;;;;16.09;55.46;100990.36;1887118;76;26166;-72
2021/09/21 11:12:12;;;;;;;;;;;;;;;15.89;55.79;100994.08;1860918;77;25367;-73
2021/09/21 11:14:43;;;;;;;5.87;3.33;;;;;;;15.83;56.00;100993.47;1858189;77;27632;-72
2021/09/21 11:17:11;;;;;;;5.42;3.25;;;;;;;15.80;56.04;100998.21;1858135;77;25669;-72
2021/09/21 11:19:39;;;;;;;4.65;3.10;;;;;;;15.68;55.86;100996.68;1858026;77;25568;-72
2021/09/21 11:22:08;;;;;;;4.10;2.90;;;;;;;15.56;55.01;100991.11;1858107;77;25656;-72
2021/09/21 11:24:38;;;;;;;5.90;3.35;;;;;;;15.34;55.58;100992.95;1858152;77;25407;-73
2021/09/21 11:27:08;;;;;;;5.05;3.20;;;;;;;15.19;55.96;101000.24;1788305;80;27540;-72
2021/09/21 11:29:40;;;;;;;6.53;3.77;;;;;;;15.10;56.54;100997.00;1820298;78;25416;-71
2021/09/21 11:32:19;;;;;;;6.78;3.67;;;;;;;14.99;56.68;101007.18;1788133;80;25640;-72
2021/09/21 11:35:00;;;;;;;4.62;3.58;;;;;;;14.89;57.21;101013.17;1819242;78;25457;-72
2021/09/21 11:37:27;;;;;;;7.62;3.92;;;;;;;14.92;58.06;101006.30;1820472;78;25458;-72